Time;durP1;ratioP1;P1;durP2;ratioP2;P2;SDS_P1;SDS_P2;PMS_P1;PMS_P2;Temp;Humidity;BMP_temperature;BMP_pressure;BME280_temperature;BME280_humidity;BME280_pressure;Samples;Min_cycle;Max_cycle;Signal;HPM_P1;HPM_P2
2021/12/16 00:09:06;;;;;;;75.40;68.10;;;;;;;4.28;93.81;99213.08;106344;1323;22485;-63
2021/12/16 00:33:36;;;;;;;66.40;60.20;;;;;;;4.32;93.87;99197.34;106296;1323;23221;-63
2021/12/16 00:36:07;;;;;;;66.70;60.10;;;;;;;4.36;93.75;99198.15;106288;1323;22396;-63
2021/12/16 00:38:38;;;;;;;78.80;71.00;;;;;;;4.37;93.66;99201.00;106191;1323;138046;-62
2021/12/16 00:41:08;;;;;;;70.80;64.00;;;;;;;4.37;93.83;99203.23;106298;1323;22499;-62
2021/12/16 00:46:18;;;;;;;69.10;62.50;;;;;;;4.43;93.72;99197.10;106329;1323;23259;-67
2021/12/16 00:49:17;;;;;;;69.60;63.20;;;;;;;4.47;93.76;99198.28;106306;1322;22565;-66
2021/12/16 00:54:35;;;;;;;69.60;62.80;;;;;;;4.48;93.74;99206.58;106298;1323;22293;-65
2021/12/16 00:57:11;;;;;;;67.10;60.80;;;;;;;4.45;93.53;99208.70;106309;1323;22406;-64
2021/12/16 00:59:44;;;;;;;68.70;62.30;;;;;;;4.46;93.31;99208.86;106247;1323;22616;-65
2021/12/16 01:02:44;;;;;;;70.70;63.50;;;;;;;4.49;93.57;99213.70;106306;1323;22412;-65
2021/12/16 01:05:48;;;;;;;78.20;70.50;;;;;;;4.52;93.59;99209.34;106298;1323;22476;-65
2021/12/16 01:08:26;;;;;;;71.90;65.10;;;;;;;4.49;93.26;99204.95;106235;1323;22611;-65
2021/12/16 01:40:04;;;;;;;66.20;59.70;;;;;;;4.46;93.48;99183.88;106240;1323;22445;-64
2021/12/16 01:50:25;;;;;;;70.80;64.20;;;;;;;4.40;93.67;99171.86;106004;1323;396620;-66
2021/12/16 01:55:38;;;;;;;70.30;63.20;;;;;;;4.39;93.40;99169.73;106263;1323;22460;-66
2021/12/16 01:58:16;;;;;;;73.90;67.10;;;;;;;4.42;93.21;99167.98;106285;1323;22515;-66
2021/12/16 02:01:19;;;;;;;90.30;78.40;;;;;;;4.42;93.47;99161.32;106197;1323;22482;-65
2021/12/16 02:03:53;;;;;;;105.30;81.90;;;;;;;4.42;93.81;99159.71;106292;1323;22584;-64
2021/12/16 02:08:55;;;;;;;119.70;82.60;;;;;;;4.38;93.68;99154.48;106240;1323;22599;-65
2021/12/16 02:11:47;;;;;;;92.00;73.10;;;;;;;4.36;93.48;99149.75;106243;1323;22541;-65
2021/12/16 02:28:28;;;;;;;74.40;66.60;;;;;;;4.31;93.64;99141.55;106320;1323;22507;-66
2021/12/16 02:36:40;;;;;;;77.70;69.60;;;;;;;4.33;93.71;99139.69;106268;1323;23020;-65
2021/12/16 02:39:15;;;;;;;74.30;66.80;;;;;;;4.35;93.47;99140.48;106307;1323;22363;-66
2021/12/16 02:41:46;;;;;;;72.10;64.30;;;;;;;4.36;93.73;99146.05;106286;1323;23233;-66
2021/12/16 02:49:55;;;;;;;82.30;70.10;;;;;;;4.27;93.97;99145.02;106334;1323;23147;-64
2021/12/16 02:52:27;;;;;;;75.90;67.90;;;;;;;4.26;93.55;99142.62;106307;1323;23257;-64
2021/12/16 02:54:56;;;;;;;77.90;69.60;;;;;;;4.27;93.50;99146.30;106328;1323;22445;-65
2021/12/16 02:57:25;;;;;;;80.80;70.70;;;;;;;4.26;93.85;99144.67;106305;1323;22461;-65
2021/12/16 02:59:54;;;;;;;99.00;74.70;;;;;;;4.23;93.54;99144.18;106318;1322;22414;-64
2021/12/16 03:02:25;;;;;;;82.60;73.60;;;;;;;4.22;94.02;99139.55;106223;1324;22475;-65
2021/12/16 03:04:54;;;;;;;90.00;71.60;;;;;;;4.23;93.99;99138.19;106320;1323;22594;-64
2021/12/16 03:07:24;;;;;;;78.30;70.00;;;;;;;4.25;93.87;99137.96;106302;1323;22485;-65
2021/12/16 03:10:42;;;;;;;84.00;74.80;;;;;;;4.26;93.73;99133.46;106245;1323;22256;-65
2021/12/16 03:21:21;;;;;;;87.90;74.90;;;;;;;4.32;93.79;99140.81;106332;1323;23132;-65
2021/12/16 03:24:06;;;;;;;112.10;82.90;;;;;;;4.35;93.98;99143.67;106285;1323;22814;-65
2021/12/16 03:35:32;;;;;;;93.90;76.80;;;;;;;4.44;93.99;99144.05;106262;1323;22495;-65
2021/12/16 03:38:07;;;;;;;100.10;80.60;;;;;;;4.44;93.94;99147.28;106248;1323;22469;-66
2021/12/16 03:40:39;;;;;;;133.10;86.40;;;;;;;4.44;94.08;99149.89;106330;1323;22279;-66
2021/12/16 03:43:12;;;;;;;129.30;84.30;;;;;;;4.44;93.93;99150.95;106271;1323;22396;-65
2021/12/16 03:48:43;;;;;;;103.40;76.50;;;;;;;4.44;93.88;99148.65;106278;1320;22613;-65
2021/12/16 03:51:18;;;;;;;114.00;76.70;;;;;;;4.43;93.77;99149.85;106334;1323;22255;-66
2021/12/16 03:53:50;;;;;;;118.80;82.50;;;;;;;4.38;93.83;99148.20;106275;1323;22593;-66
2021/12/16 03:56:23;;;;;;;80.70;68.20;;;;;;;4.37;94.01;99159.30;106190;1324;22515;-66
2021/12/16 03:59:04;;;;;;;103.40;73.30;;;;;;;4.31;93.87;99162.46;106259;1323;22292;-67
2021/12/16 04:01:40;;;;;;;103.00;72.10;;;;;;;4.27;93.88;99155.96;106329;1322;23123;-66
2021/12/16 04:04:09;;;;;;;85.70;70.50;;;;;;;4.27;94.03;99151.11;106219;1323;23142;-64
2021/12/16 04:06:39;;;;;;;105.60;71.50;;;;;;;4.30;94.22;99147.54;106261;1320;23024;-66
2021/12/16 04:09:13;;;;;;;143.10;76.30;;;;;;;4.31;94.09;99147.56;106254;1323;22356;-66
2021/12/16 04:12:02;;;;;;;113.50;68.70;;;;;;;4.29;94.20;99149.60;106232;1323;22482;-65
2021/12/16 04:14:31;;;;;;;76.60;68.70;;;;;;;4.27;94.28;99149.98;106251;1323;23135;-64
2021/12/16 04:17:03;;;;;;;78.40;67.90;;;;;;;4.30;94.17;99151.07;106284;1323;22596;-67
2021/12/16 04:19:39;;;;;;;86.40;68.30;;;;;;;4.31;94.39;99150.35;106278;1323;22350;-64
2021/12/16 04:22:16;;;;;;;107.00;73.20;;;;;;;4.29;94.11;99146.19;106233;1322;22364;-63
2021/12/16 04:24:48;;;;;;;165.10;75.00;;;;;;;4.27;94.27;99144.38;106239;1323;23228;-64
2021/12/16 04:27:17;;;;;;;76.50;65.10;;;;;;;4.23;94.50;99147.95;106237;1323;22413;-64
2021/12/16 04:29:46;;;;;;;68.70;62.00;;;;;;;4.21;94.49;99155.59;106274;1323;22499;-64
2021/12/16 04:32:15;;;;;;;82.00;60.20;;;;;;;4.18;94.27;99154.05;106293;1323;22524;-64
2021/12/16 04:34:44;;;;;;;86.80;63.50;;;;;;;4.16;94.25;99158.70;106269;1323;22590;-63
2021/12/16 04:37:13;;;;;;;77.10;65.00;;;;;;;4.17;94.33;99160.81;106239;1323;22584;-64
2021/12/16 04:39:44;;;;;;;81.60;62.60;;;;;;;4.18;94.23;99162.06;106243;1323;22441;-64
2021/12/16 04:42:15;;;;;;;83.10;64.40;;;;;;;4.21;94.26;99164.61;106247;1323;22425;-65
2021/12/16 04:44:45;;;;;;;107.50;70.30;;;;;;;4.23;94.36;99167.33;106212;1324;22596;-65
2021/12/16 04:47:13;;;;;;;108.50;63.70;;;;;;;4.24;94.34;99166.86;106257;1324;22681;-65
2021/12/16 04:49:43;;;;;;;71.50;64.30;;;;;;;4.26;94.44;99169.84;106250;1321;23015;-65
2021/12/16 04:52:16;;;;;;;71.80;63.20;;;;;;;4.26;94.66;99169.38;106284;1322;22411;-65
2021/12/16 04:54:46;;;;;;;98.80;68.30;;;;;;;4.29;94.40;99170.41;106317;1323;22481;-64
2021/12/16 04:57:15;;;;;;;106.30;64.80;;;;;;;4.31;94.48;99171.97;106235;1323;22445;-64
2021/12/16 04:59:45;;;;;;;144.00;70.00;;;;;;;4.32;94.54;99170.08;106267;1323;22493;-64
2021/12/16 05:02:19;;;;;;;98.70;68.00;;;;;;;4.31;94.50;99172.71;106243;1323;23221;-64
2021/12/16 05:05:00;;;;;;;84.20;67.20;;;;;;;4.35;94.47;99172.06;106258;1323;22568;-66
2021/12/16 05:07:29;;;;;;;81.90;66.80;;;;;;;4.37;94.30;99175.59;106222;1323;22465;-65
2021/12/16 05:10:18;;;;;;;73.90;65.50;;;;;;;4.42;94.31;99178.48;106304;1317;22404;-65
2021/12/16 05:12:59;;;;;;;96.60;69.20;;;;;;;4.44;94.37;99173.65;106285;1323;22552;-65
2021/12/16 05:15:33;;;;;;;127.00;71.80;;;;;;;4.48;94.45;99176.89;106349;1323;23161;-67
2021/12/16 05:18:05;;;;;;;91.30;63.90;;;;;;;4.47;94.59;99176.97;106258;1323;22482;-66
2021/12/16 05:20:42;;;;;;;96.20;65.50;;;;;;;4.46;94.36;99177.52;106246;1323;22443;-67
2021/12/16 05:26:19;;;;;;;79.00;67.90;;;;;;;4.48;94.50;99177.05;105888;1323;22570;-66
2021/12/16 05:29:10;;;;;;;127.60;75.50;;;;;;;4.51;94.64;99177.13;106247;1323;22523;-67
2021/12/16 05:31:39;;;;;;;144.80;82.30;;;;;;;4.54;94.53;99180.89;106334;1322;23150;-66
2021/12/16 05:34:09;;;;;;;116.30;74.00;;;;;;;4.53;94.30;99181.15;106247;1323;22577;-66
2021/12/16 05:36:40;;;;;;;93.60;74.20;;;;;;;4.52;94.50;99180.64;106241;1323;22530;-66
2021/12/16 05:39:10;;;;;;;80.60;70.60;;;;;;;4.54;94.61;99183.45;106310;1323;22471;-66
2021/12/16 05:41:51;;;;;;;113.60;75.60;;;;;;;4.54;94.30;99181.75;106261;1323;23666;-66
2021/12/16 05:44:22;;;;;;;124.10;73.50;;;;;;;4.53;94.43;99186.63;106249;1323;22311;-66
2021/12/16 05:46:50;;;;;;;101.60;72.70;;;;;;;4.50;94.43;99192.42;106263;1323;23144;-67
2021/12/16 05:49:20;;;;;;;96.20;73.80;;;;;;;4.48;94.49;99192.81;106305;1323;22892;-66
2021/12/16 05:51:50;;;;;;;80.70;71.70;;;;;;;4.50;94.45;99198.73;106266;1323;22541;-67
2021/12/16 05:54:21;;;;;;;79.80;71.10;;;;;;;4.53;94.21;99194.55;106286;1323;22473;-67
2021/12/16 05:56:52;;;;;;;85.10;75.80;;;;;;;4.55;94.37;99197.14;106267;1323;22453;-66
2021/12/16 05:59:22;;;;;;;87.20;77.70;;;;;;;4.53;94.35;99194.70;106281;1324;22649;-66
2021/12/16 06:01:51;;;;;;;82.20;73.60;;;;;;;4.50;94.19;99195.09;106100;1324;137563;-66
2021/12/16 06:04:21;;;;;;;79.40;71.20;;;;;;;4.48;94.29;99194.83;106267;1323;23674;-68
2021/12/16 06:06:52;;;;;;;85.80;71.10;;;;;;;4.48;94.28;99196.11;106228;1323;22620;-64
2021/12/16 06:09:20;;;;;;;93.00;75.90;;;;;;;4.47;94.39;99194.27;106277;1323;22503;-63
2021/12/16 06:11:51;;;;;;;85.50;76.30;;;;;;;4.46;94.34;99191.73;106313;1323;22591;-64
2021/12/16 06:14:39;;;;;;;85.60;75.60;;;;;;;4.45;94.44;99197.58;106312;1323;22477;-64
2021/12/16 06:28:07;;;;;;;99.90;80.80;;;;;;;4.48;94.26;99196.39;106332;1323;22400;-64
2021/12/16 06:30:40;;;;;;;82.90;74.60;;;;;;;4.45;94.47;99193.14;106326;1323;23053;-64
2021/12/16 06:33:12;;;;;;;77.80;69.40;;;;;;;4.43;94.54;99191.27;106224;1323;138191;-64
2021/12/16 06:35:41;;;;;;;77.90;70.00;;;;;;;4.42;94.47;99192.58;106333;1322;22431;-64
2021/12/16 06:38:10;;;;;;;78.20;69.70;;;;;;;4.42;94.45;99192.90;106346;1323;22452;-64
2021/12/16 06:40:52;;;;;;;77.70;69.30;;;;;;;4.43;94.32;99198.09;106254;1323;22561;-64
2021/12/16 06:43:48;;;;;;;79.10;71.20;;;;;;;4.41;94.53;99195.70;106129;1323;22597;-64
2021/12/16 06:46:19;;;;;;;81.80;73.00;;;;;;;4.38;94.38;99195.36;106241;1323;22599;-64
2021/12/16 06:48:55;;;;;;;76.60;68.50;;;;;;;4.36;94.72;99203.36;106301;1323;23230;-63
2021/12/16 06:51:35;;;;;;;76.40;69.10;;;;;;;4.30;94.76;99200.61;106245;1324;22393;-64
2021/12/16 06:54:14;;;;;;;78.00;69.70;;;;;;;4.28;94.48;99198.41;106320;1323;22406;-64
2021/12/16 06:56:54;;;;;;;75.90;68.70;;;;;;;4.28;94.66;99203.84;106329;1323;22619;-64
2021/12/16 06:59:28;;;;;;;75.80;68.20;;;;;;;4.28;94.72;99206.09;106336;1323;23507;-64
2021/12/16 07:02:32;;;;;;;87.90;78.50;;;;;;;4.27;94.79;99204.79;106157;1323;138229;-64
2021/12/16 07:04:48;;;;;;;85.80;77.00;;;;;;;4.25;94.75;99204.95;106314;1323;22467;-62
2021/12/16 07:07:16;;;;;;;79.50;71.80;;;;;;;4.23;95.07;99202.10;106338;1323;22584;-63
2021/12/16 07:09:44;;;;;;;78.70;70.90;;;;;;;4.22;94.62;99204.33;106334;1322;23064;-63
2021/12/16 07:12:12;;;;;;;77.40;69.70;;;;;;;4.22;94.75;99200.64;106349;1322;24526;-63
2021/12/16 07:14:40;;;;;;;78.30;71.00;;;;;;;4.23;94.58;99202.16;106223;1324;22404;-63
2021/12/16 07:17:12;;;;;;;79.50;71.90;;;;;;;4.24;94.63;99194.37;106369;1323;22298;-63
2021/12/16 07:19:42;;;;;;;81.80;72.90;;;;;;;4.24;94.64;99191.98;106317;1323;22317;-63
2021/12/16 07:22:12;;;;;;;77.10;69.30;;;;;;;4.20;94.78;99193.56;106323;1322;23071;-64
2021/12/16 07:24:40;;;;;;;74.90;67.20;;;;;;;4.19;94.88;99193.67;106336;1323;22513;-65
2021/12/16 07:27:10;;;;;;;76.70;69.10;;;;;;;4.18;94.76;99185.50;106351;1323;22410;-65
2021/12/16 07:29:38;;;;;;;70.80;63.60;;;;;;;4.18;94.91;99188.79;106338;1323;22586;-63
2021/12/16 07:32:07;;;;;;;82.60;74.00;;;;;;;4.17;94.84;99184.83;106327;1320;22468;-63
2021/12/16 07:34:35;;;;;;;77.60;69.20;;;;;;;4.16;95.03;99185.64;106321;1323;22435;-62
2021/12/16 07:37:06;;;;;;;75.90;68.40;;;;;;;4.17;95.11;99183.42;106318;1323;22294;-63
2021/12/16 07:39:42;;;;;;;75.10;66.40;;;;;;;4.18;94.64;99181.97;106290;1323;22408;-63
2021/12/16 07:42:13;;;;;;;71.60;64.20;;;;;;;4.21;94.92;99181.73;106297;1323;22423;-64
2021/12/16 07:44:43;;;;;;;76.40;68.70;;;;;;;4.24;94.86;99183.95;106233;1323;22400;-64
2021/12/16 07:47:11;;;;;;;76.10;68.20;;;;;;;4.24;95.17;99179.79;106318;1323;22516;-64
2021/12/16 07:49:42;;;;;;;76.30;68.20;;;;;;;4.24;94.92;99183.09;106348;1323;22422;-64
2021/12/16 07:52:15;;;;;;;76.90;68.50;;;;;;;4.24;94.98;99186.88;106306;1323;22497;-64
2021/12/16 07:54:44;;;;;;;69.60;62.20;;;;;;;4.25;94.99;99183.39;106309;1322;23218;-64
2021/12/16 07:57:12;;;;;;;77.10;69.10;;;;;;;4.28;94.96;99190.41;106342;1323;22301;-64
2021/12/16 07:59:40;;;;;;;78.80;71.10;;;;;;;4.29;94.80;99196.30;106325;1323;22425;-64
2021/12/16 08:02:11;;;;;;;111.20;86.40;;;;;;;4.30;94.88;99197.63;106349;1323;23126;-64
2021/12/16 08:04:43;;;;;;;167.50;107.80;;;;;;;4.30;95.15;99198.56;106326;1323;22363;-64
2021/12/16 08:07:14;;;;;;;176.00;118.30;;;;;;;4.30;95.02;99198.63;106304;1323;22373;-64
2021/12/16 08:09:43;;;;;;;101.20;84.00;;;;;;;4.34;94.82;99202.19;106243;1323;22511;-63
2021/12/16 08:12:14;;;;;;;75.80;67.90;;;;;;;4.38;94.94;99199.85;106300;1323;22410;-64
2021/12/16 08:14:44;;;;;;;77.80;69.60;;;;;;;4.41;94.86;99201.38;106321;1323;22367;-64
2021/12/16 08:17:14;;;;;;;89.60;80.00;;;;;;;4.40;94.83;99199.70;106320;1323;22425;-64
2021/12/16 08:19:45;;;;;;;79.80;71.60;;;;;;;4.39;95.06;99197.38;106337;1323;22453;-64
2021/12/16 08:22:14;;;;;;;80.50;71.90;;;;;;;4.40;94.72;99200.81;106362;1323;23215;-64
2021/12/16 08:24:48;;;;;;;75.40;68.00;;;;;;;4.42;94.89;99200.48;106372;1322;22416;-64
2021/12/16 08:27:27;;;;;;;75.80;67.70;;;;;;;4.43;94.71;99201.21;106337;1323;22558;-64
2021/12/16 08:29:56;;;;;;;82.60;74.10;;;;;;;4.44;94.68;99205.35;106331;1323;22707;-64
2021/12/16 08:32:26;;;;;;;78.70;70.90;;;;;;;4.44;94.83;99203.83;106356;1323;22501;-64
2021/12/16 08:34:54;;;;;;;77.70;69.40;;;;;;;4.41;94.59;99199.66;106339;1323;22946;-64
2021/12/16 08:37:24;;;;;;;78.00;70.20;;;;;;;4.39;94.83;99202.95;106311;1323;22390;-64
2021/12/16 08:39:54;;;;;;;71.50;64.30;;;;;;;4.40;94.55;99207.86;106359;1323;23358;-64
2021/12/16 08:42:23;;;;;;;75.40;67.70;;;;;;;4.43;94.67;99210.01;106305;1320;23222;-64
2021/12/16 08:44:51;;;;;;;77.20;69.40;;;;;;;4.43;94.63;99211.52;106354;1323;22618;-64
2021/12/16 08:47:21;;;;;;;72.70;64.90;;;;;;;4.42;94.79;99211.02;106330;1323;22631;-64
2021/12/16 08:49:51;;;;;;;75.90;64.60;;;;;;;4.41;94.82;99208.59;106324;1323;22463;-64
2021/12/16 08:52:21;;;;;;;71.00;64.10;;;;;;;4.41;94.63;99215.40;106359;1323;23242;-64
2021/12/16 08:54:52;;;;;;;77.40;69.40;;;;;;;4.44;94.87;99221.94;106353;1323;22485;-64
2021/12/16 08:57:27;;;;;;;80.30;72.20;;;;;;;4.50;94.89;99220.25;106344;1323;22267;-64
2021/12/16 08:59:56;;;;;;;82.80;74.80;;;;;;;4.55;94.75;99221.70;106338;1323;22488;-64
2021/12/16 09:02:26;;;;;;;81.40;73.00;;;;;;;4.54;94.85;99213.30;105992;1325;22646;-64
2021/12/16 09:04:55;;;;;;;94.10;82.20;;;;;;;4.56;94.85;99211.63;106317;1323;23296;-63
2021/12/16 09:07:24;;;;;;;89.90;80.50;;;;;;;4.61;94.84;99217.09;106337;1323;22287;-64
2021/12/16 09:09:54;;;;;;;80.50;73.00;;;;;;;4.67;94.64;99219.23;106279;1322;22514;-65
2021/12/16 09:15:03;;;;;;;85.40;76.00;;;;;;;4.76;94.84;99211.58;106340;1323;22507;-64
2021/12/16 09:17:32;;;;;;;75.30;67.80;;;;;;;4.76;94.43;99210.02;106326;1323;22471;-64
2021/12/16 09:20:05;;;;;;;77.10;69.50;;;;;;;4.77;94.58;99204.54;106338;1323;22501;-64
2021/12/16 09:22:35;;;;;;;77.50;70.20;;;;;;;4.78;94.46;99202.75;106339;1317;22278;-64
2021/12/16 09:25:06;;;;;;;83.60;74.70;;;;;;;4.82;94.80;99205.27;106329;1323;22432;-65
2021/12/16 09:27:35;;;;;;;87.90;78.70;;;;;;;4.86;94.48;99204.77;106364;1323;23115;-64
2021/12/16 09:30:13;;;;;;;88.30;79.50;;;;;;;4.91;94.57;99207.70;106336;1323;22524;-64
2021/12/16 09:32:43;;;;;;;82.20;73.50;;;;;;;4.90;94.68;99205.61;106332;1323;22481;-64
2021/12/16 09:35:13;;;;;;;75.50;68.00;;;;;;;4.91;94.49;99210.98;106354;1323;23308;-64
2021/12/16 09:37:43;;;;;;;81.00;72.70;;;;;;;4.92;94.39;99205.34;106212;1323;23252;-64
2021/12/16 09:40:21;;;;;;;79.40;72.00;;;;;;;4.93;94.37;99202.36;106351;1323;22423;-64
2021/12/16 09:42:52;;;;;;;84.80;76.70;;;;;;;4.91;94.17;99195.12;106327;1323;22469;-64
2021/12/16 09:45:22;;;;;;;75.50;67.90;;;;;;;4.89;94.33;99189.61;106318;1323;22484;-64
2021/12/16 09:47:52;;;;;;;75.10;67.70;;;;;;;4.87;94.54;99183.30;106227;1323;22605;-64
2021/12/16 09:50:27;;;;;;;70.70;63.90;;;;;;;4.88;94.37;99187.57;105943;1323;562457;-64
2021/12/16 09:52:57;;;;;;;78.50;70.90;;;;;;;4.88;94.36;99182.45;106265;1323;22479;-64
2021/12/16 09:55:33;;;;;;;79.40;71.60;;;;;;;4.88;94.29;99179.27;106326;1323;22986;-64
2021/12/16 09:58:04;;;;;;;78.40;70.70;;;;;;;4.85;94.13;99171.64;106325;1323;22395;-64
2021/12/16 10:00:33;;;;;;;76.50;69.00;;;;;;;4.84;94.54;99177.58;106322;1323;22454;-64
2021/12/16 10:03:04;;;;;;;74.30;66.80;;;;;;;4.84;94.51;99167.86;106326;1323;23332;-64
2021/12/16 10:05:34;;;;;;;75.40;68.00;;;;;;;4.88;94.34;99171.42;106339;1323;22271;-64
2021/12/16 10:08:05;;;;;;;75.90;68.90;;;;;;;4.91;94.32;99167.88;106354;1323;22510;-63
2021/12/16 10:10:36;;;;;;;77.60;70.00;;;;;;;4.92;94.34;99168.23;106344;1323;22307;-64
2021/12/16 10:13:06;;;;;;;76.50;68.90;;;;;;;4.92;94.44;99162.98;106364;1322;22293;-64
2021/12/16 10:18:31;;;;;;;70.30;63.60;;;;;;;4.95;94.36;99169.50;106342;1323;22502;-64
2021/12/16 10:21:05;;;;;;;77.50;69.80;;;;;;;4.96;94.47;99165.16;106314;1322;23268;-64
2021/12/16 10:23:39;;;;;;;76.30;69.30;;;;;;;4.98;94.65;99162.42;106349;1323;22475;-64
2021/12/16 10:26:20;;;;;;;73.70;66.50;;;;;;;4.93;94.23;99161.56;106247;1323;23322;-63
2021/12/16 10:28:52;;;;;;;74.40;67.30;;;;;;;4.90;94.77;99161.16;106336;1323;23251;-64
2021/12/16 10:31:35;;;;;;;70.80;64.00;;;;;;;4.91;94.58;99162.04;106254;1323;23245;-64
2021/12/16 10:34:07;;;;;;;71.00;64.10;;;;;;;4.92;94.52;99157.74;106322;1323;22472;-64
2021/12/16 10:36:40;;;;;;;74.80;67.50;;;;;;;4.94;94.64;99163.72;106332;1323;22515;-64
2021/12/16 10:39:13;;;;;;;76.20;69.00;;;;;;;4.91;94.74;99163.23;106342;1323;22384;-65
2021/12/16 10:41:46;;;;;;;73.50;66.70;;;;;;;4.89;94.77;99162.05;106341;1323;23130;-65
2021/12/16 10:44:17;;;;;;;73.80;66.30;;;;;;;4.89;94.84;99162.91;106372;1323;22394;-64
2021/12/16 10:47:03;;;;;;;67.20;60.50;;;;;;;4.91;94.96;99158.80;106332;1323;23258;-64
2021/12/16 10:49:39;;;;;;;70.50;64.20;;;;;;;4.93;95.04;99160.00;106344;1323;22520;-65
2021/12/16 10:52:16;;;;;;;69.80;63.50;;;;;;;4.95;94.87;99163.05;106332;1323;22408;-65
2021/12/16 10:54:47;;;;;;;69.40;63.20;;;;;;;4.96;94.84;99162.58;106345;1323;22536;-65
2021/12/16 10:57:19;;;;;;;63.50;57.70;;;;;;;4.95;94.92;99157.55;106327;1317;22478;-65
2021/12/16 10:59:57;;;;;;;59.00;53.60;;;;;;;4.94;95.21;99156.95;106333;1323;22540;-62
2021/12/16 11:02:34;;;;;;;63.80;58.10;;;;;;;4.94;95.07;99154.77;106311;1323;22479;-63
2021/12/16 11:05:15;;;;;;;66.90;61.00;;;;;;;4.94;95.01;99147.81;106334;1323;22395;-63
2021/12/16 11:07:46;;;;;;;56.90;51.80;;;;;;;4.99;95.06;99151.06;106332;1323;22491;-64
2021/12/16 11:10:19;;;;;;;69.60;63.20;;;;;;;5.00;95.16;99145.14;106316;1323;23218;-65
2021/12/16 11:12:52;;;;;;;63.10;57.50;;;;;;;5.03;95.22;99146.77;106250;1323;22716;-65
2021/12/16 11:15:44;;;;;;;59.80;54.20;;;;;;;5.02;95.25;99140.23;106316;1323;23166;-66
2021/12/16 11:18:15;;;;;;;55.80;50.50;;;;;;;5.01;95.27;99140.88;106303;1323;22411;-65
2021/12/16 11:20:50;;;;;;;57.60;52.30;;;;;;;5.04;95.23;99147.54;106323;1321;22307;-64
2021/12/16 11:23:20;;;;;;;60.20;54.60;;;;;;;5.02;95.28;99148.15;106253;1323;22606;-65
2021/12/16 11:25:58;;;;;;;59.90;54.40;;;;;;;5.03;94.94;99147.84;106303;1323;23215;-65
2021/12/16 11:28:31;;;;;;;63.00;57.30;;;;;;;5.05;95.21;99142.01;106314;1323;22628;-64
2021/12/16 11:31:05;;;;;;;72.10;65.50;;;;;;;5.05;95.26;99145.17;106314;1323;22620;-64
2021/12/16 11:33:42;;;;;;;61.20;55.60;;;;;;;5.04;95.49;99145.10;106314;1323;22403;-64
2021/12/16 11:36:18;;;;;;;59.40;54.00;;;;;;;5.06;95.37;99138.67;106320;1323;22568;-65
2021/12/16 11:39:01;;;;;;;62.20;56.50;;;;;;;5.09;95.24;99133.88;106264;1323;22482;-65
2021/12/16 11:41:41;;;;;;;66.30;60.30;;;;;;;5.13;95.48;99134.34;106301;1323;22601;-64
2021/12/16 11:44:18;;;;;;;64.80;59.10;;;;;;;5.16;95.43;99130.30;106268;1323;22385;-66
2021/12/16 11:47:01;;;;;;;62.50;56.90;;;;;;;5.17;95.31;99131.07;106267;1323;22964;-64
2021/12/16 11:49:39;;;;;;;61.60;56.10;;;;;;;5.18;95.27;99136.97;106317;1323;23252;-64
2021/12/16 11:52:15;;;;;;;60.50;54.90;;;;;;;5.21;95.22;99127.27;106303;1323;22447;-65
2021/12/16 11:54:55;;;;;;;58.90;53.50;;;;;;;5.23;95.33;99122.48;106219;1321;23036;-64
2021/12/16 11:57:34;;;;;;;62.90;57.10;;;;;;;5.27;95.39;99122.42;106312;1323;22301;-63
2021/12/16 12:00:15;;;;;;;64.70;59.10;;;;;;;5.32;95.55;99120.97;106331;1323;23016;-65
2021/12/16 12:02:54;;;;;;;67.70;61.80;;;;;;;5.34;95.31;99130.31;106359;1323;22581;-64
2021/12/16 12:05:33;;;;;;;55.00;49.90;;;;;;;5.33;95.31;99141.09;106318;1323;22454;-63
2021/12/16 12:08:29;;;;;;;48.90;44.60;;;;;;;5.31;95.52;99146.71;106323;1323;22462;-65
2021/12/16 12:11:18;;;;;;;49.40;45.00;;;;;;;5.34;95.35;99143.95;106329;1323;22590;-64
2021/12/16 12:13:56;;;;;;;54.90;49.90;;;;;;;5.39;95.56;99145.63;106308;1322;22559;-64
2021/12/16 12:16:40;;;;;;;52.00;47.40;;;;;;;5.42;95.31;99138.04;106311;1323;23341;-64
2021/12/16 12:19:16;;;;;;;60.60;55.10;;;;;;;5.43;95.56;99132.34;106330;1323;22490;-64
2021/12/16 12:22:01;;;;;;;70.40;63.40;;;;;;;5.43;95.42;99130.45;106273;1323;22763;-64
2021/12/16 12:24:43;;;;;;;67.40;61.00;;;;;;;5.43;95.30;99133.98;106336;1322;22407;-65
2021/12/16 12:27:16;;;;;;;57.60;52.30;;;;;;;5.47;95.38;99135.94;106234;1323;22900;-65
2021/12/16 12:29:57;;;;;;;44.70;40.80;;;;;;;5.49;95.31;99137.31;106314;1323;23237;-64
2021/12/16 12:32:35;;;;;;;43.20;39.40;;;;;;;5.47;95.27;99132.73;106339;1323;22452;-64
2021/12/16 12:35:09;;;;;;;40.40;36.80;;;;;;;5.49;95.26;99129.13;106294;1320;22263;-64
2021/12/16 12:37:41;;;;;;;43.40;39.60;;;;;;;5.46;95.27;99128.33;106324;1323;22521;-64
2021/12/16 12:40:21;;;;;;;37.90;34.40;;;;;;;5.45;95.28;99126.02;106310;1323;22282;-64
2021/12/16 12:42:53;;;;;;;37.30;33.90;;;;;;;5.45;95.35;99124.45;106312;1322;22515;-64
2021/12/16 12:45:34;;;;;;;38.10;34.80;;;;;;;5.45;95.34;99131.25;106340;1323;23288;-64
2021/12/16 12:48:14;;;;;;;39.60;36.30;;;;;;;5.48;95.43;99134.61;106335;1323;23244;-64
2021/12/16 12:50:47;;;;;;;39.30;36.00;;;;;;;5.50;95.41;99131.13;106313;1323;22296;-64
2021/12/16 12:53:22;;;;;;;37.00;33.90;;;;;;;5.46;95.40;99131.02;106283;1322;22461;-64
2021/12/16 12:55:56;;;;;;;39.20;36.00;;;;;;;5.46;95.42;99130.10;106301;1322;23270;-65
2021/12/16 12:58:29;;;;;;;39.90;36.50;;;;;;;5.48;95.13;99118.75;106271;1323;22564;-64
2021/12/16 13:01:03;;;;;;;45.70;41.70;;;;;;;5.51;95.29;99111.33;106297;1323;22579;-64
2021/12/16 13:03:33;;;;;;;46.40;42.50;;;;;;;5.52;95.33;99115.57;106310;1323;22483;-64
2021/12/16 13:06:06;;;;;;;42.40;38.80;;;;;;;5.51;95.34;99114.60;106304;1323;22266;-64
2021/12/16 13:08:45;;;;;;;38.60;35.30;;;;;;;5.51;95.21;99117.95;106335;1322;22379;-64
2021/12/16 13:11:30;;;;;;;36.70;33.40;;;;;;;5.48;95.35;99114.69;106330;1323;23110;-65
2021/12/16 13:14:19;;;;;;;34.30;31.30;;;;;;;5.49;95.30;99118.77;106261;1322;22610;-66
2021/12/16 13:17:31;;;;;;;38.20;35.00;;;;;;;5.48;95.41;99128.64;106276;1322;22494;-66
2021/12/16 13:28:22;;;;;;;37.10;33.90;;;;;;;5.47;95.69;99129.69;106267;1322;22413;-65
2021/12/16 13:30:55;;;;;;;41.00;37.50;;;;;;;5.46;95.67;99131.55;106272;1322;22517;-65
2021/12/16 13:33:37;;;;;;;37.00;33.80;;;;;;;5.43;95.71;99132.35;106292;1323;23771;-65
2021/12/16 13:36:15;;;;;;;34.20;31.10;;;;;;;5.45;95.46;99133.02;106278;1323;22377;-64
2021/12/16 13:38:47;;;;;;;41.20;37.70;;;;;;;5.44;95.59;99133.32;106289;1323;22526;-65
2021/12/16 13:41:20;;;;;;;42.10;38.20;;;;;;;5.44;95.79;99122.67;106268;1317;22463;-65
2021/12/16 13:44:15;;;;;;;42.80;39.00;;;;;;;5.41;95.76;99125.52;106281;1323;22462;-65
2021/12/16 14:02:26;;;;;;;44.60;40.40;;;;;;;5.52;95.73;99102.57;105692;1323;22567;-65
2021/12/16 14:05:22;;;;;;;37.80;34.50;;;;;;;5.56;95.86;99097.02;106281;1322;22424;-66
2021/12/16 14:07:59;;;;;;;32.30;29.60;;;;;;;5.57;95.55;99117.86;106274;1323;22501;-67
2021/12/16 14:10:55;;;;;;;44.20;40.40;;;;;;;5.58;95.53;99126.64;106289;1323;23273;-66
2021/12/16 14:37:16;;;;;;;46.50;42.50;;;;;;;5.55;95.86;99141.63;106293;1323;23281;-64
2021/12/16 14:50:21;;;;;;;36.80;33.40;;;;;;;5.55;95.98;99157.30;106296;1322;22504;-67
2021/12/16 14:52:50;;;;;;;33.90;30.90;;;;;;;5.55;95.92;99160.86;106264;1323;22479;-67
2021/12/16 14:55:19;;;;;;;35.40;32.30;;;;;;;5.57;95.86;99170.80;106303;1323;23662;-66
2021/12/16 14:57:53;;;;;;;36.20;32.90;;;;;;;5.55;95.81;99166.97;106300;1323;23145;-68
2021/12/16 15:00:29;;;;;;;34.60;31.70;;;;;;;5.55;96.19;99167.76;106303;1323;22509;-64
2021/12/16 15:02:59;;;;;;;31.10;28.30;;;;;;;5.54;96.22;99159.63;106286;1323;22645;-64
2021/12/16 15:05:31;;;;;;;33.80;30.80;;;;;;;5.55;96.37;99160.27;106279;1323;22499;-63
2021/12/16 15:08:05;;;;;;;29.00;26.50;;;;;;;5.54;96.34;99157.44;106271;1322;23219;-64
2021/12/16 15:10:33;;;;;;;31.20;28.50;;;;;;;5.57;96.18;99147.23;106278;1323;22775;-67